Time;durP1;ratioP1;P1;durP2;ratioP2;P2;SDS_P1;SDS_P2;PMS_P1;PMS_P2;Temp;Humidity;BMP_temperature;BMP_pressure;BME280_temperature;BME280_humidity;BME280_pressure;Samples;Min_cycle;Max_cycle;Signal;HPM_P1;HPM_P2
2022/06/24 00:01:41;;;;;;;0.47;0.47;;;19.30;99.90;;;;;;5054187;28;20021;-73
2022/06/24 00:04:07;;;;;;;0.00;0.00;;;19.30;99.90;;;;;;5036059;28;20029;-73
2022/06/24 00:06:46;;;;;;;0.25;0.15;;;19.10;99.90;;;;;;5053739;28;20071;-73
2022/06/24 00:09:14;;;;;;;0.30;0.20;;;19.00;99.90;;;;;;5053779;28;20558;-73
2022/06/24 00:11:40;;;;;;;0.00;0.00;;;19.00;99.90;;;;;;5053858;28;20384;-73
2022/06/24 00:14:10;;;;;;;0.10;0.10;;;19.10;99.90;;;;;;5035957;28;20025;-73
2022/06/24 00:16:56;;;;;;;0.20;0.20;;;19.10;99.90;;;;;;5053404;28;20025;-73
2022/06/24 00:19:26;;;;;;;0.10;0.03;;;19.00;99.90;;;;;;5053606;28;20033;-73
2022/06/24 00:22:07;;;;;;;0.30;0.30;;;19.00;99.90;;;;;;5053657;28;20033;-73
2022/06/24 00:24:34;;;;;;;0.00;0.00;;;18.80;99.90;;;;;;5053660;28;20021;-73
2022/06/24 00:27:00;;;;;;;4.95;0.75;;;18.90;99.90;;;;;;5053310;28;20150;-73
2022/06/24 00:29:29;;;;;;;0.28;0.28;;;19.00;99.90;;;;;;5053439;28;20088;-73
2022/06/24 00:32:03;;;;;;;0.10;0.10;;;19.00;99.90;;;;;;5053457;28;20036;-73
2022/06/24 00:34:29;;;;;;;0.00;0.00;;;18.90;99.90;;;;;;5053443;28;20424;-73
2022/06/24 00:36:55;;;;;;;1.02;0.20;;;19.00;99.90;;;;;;5053185;28;20032;-73
2022/06/24 00:39:34;;;;;;;0.13;0.13;;;19.00;99.90;;;;;;5035474;28;20021;-73
2022/06/24 00:42:01;;;;;;;0.00;0.00;;;19.00;99.90;;;;;;5035152;28;20033;-73
2022/06/24 00:44:40;;;;;;;0.00;0.00;;;19.20;99.90;;;;;;5053252;28;20050;-73
2022/06/24 00:47:07;;;;;;;0.10;0.10;;;19.20;99.90;;;;;;5052932;28;20502;-73
2022/06/24 00:49:33;;;;;;;0.00;0.00;;;19.40;99.90;;;;;;5035127;28;20482;-73
2022/06/24 00:52:07;;;;;;;0.00;0.00;;;19.50;99.90;;;;;;5052724;28;20079;-73
2022/06/24 00:54:33;;;;;;;0.00;0.00;;;19.60;99.90;;;;;;5053121;28;20031;-73
2022/06/24 00:56:59;;;;;;;0.10;0.10;;;19.50;99.90;;;;;;5052717;28;20025;-73
2022/06/24 00:59:25;;;;;;;0.00;0.00;;;19.50;99.90;;;;;;5052703;28;20099;-73
2022/06/24 01:01:51;;;;;;;0.00;0.00;;;19.60;99.90;;;;;;5052758;28;20067;-74
2022/06/24 01:04:17;;;;;;;0.00;0.00;;;19.60;99.90;;;;;;5052790;28;20027;-73
2022/06/24 01:06:44;;;;;;;1.00;0.65;;;19.50;99.90;;;;;;5034609;28;20474;-73
2022/06/24 01:09:10;;;;;;;0.00;0.00;;;19.40;99.90;;;;;;5052653;28;20029;-73
2022/06/24 01:11:37;;;;;;;0.10;0.10;;;19.50;99.90;;;;;;5018291;28;20084;-73
2022/06/24 01:14:03;;;;;;;1.38;0.10;;;19.70;99.90;;;;;;5052596;28;20030;-73
2022/06/24 01:16:30;;;;;;;0.03;0.03;;;19.60;99.90;;;;;;5052843;28;20468;-73
2022/06/24 01:18:58;;;;;;;0.00;0.00;;;19.50;99.90;;;;;;5018111;28;20028;-73
2022/06/24 01:21:38;;;;;;;0.00;0.00;;;19.40;99.90;;;;;;5034499;28;20029;-73
2022/06/24 01:24:15;;;;;;;0.00;0.00;;;19.50;99.90;;;;;;5052493;28;20063;-73
2022/06/24 01:26:44;;;;;;;0.00;0.00;;;19.50;99.90;;;;;;5052110;28;20044;-73
2022/06/24 01:29:10;;;;;;;0.00;0.00;;;19.40;99.90;;;;;;5051690;28;20021;-73
2022/06/24 01:31:38;;;;;;;0.00;0.00;;;19.50;99.90;;;;;;5052250;28;20025;-73
2022/06/24 01:34:04;;;;;;;0.10;0.10;;;19.50;99.90;;;;;;5034364;28;20143;-73
2022/06/24 01:36:30;;;;;;;0.00;0.00;;;19.40;99.90;;;;;;5052136;28;20025;-73
2022/06/24 01:38:56;;;;;;;0.00;0.00;;;19.50;99.90;;;;;;5051825;28;20207;-73
2022/06/24 01:41:21;;;;;;;0.00;0.00;;;19.60;99.90;;;;;;5052173;28;20100;-73
2022/06/24 01:43:47;;;;;;;0.00;0.00;;;19.70;99.90;;;;;;5034486;28;20017;-73
2022/06/24 01:46:14;;;;;;;0.10;0.10;;;19.80;99.90;;;;;;5034196;28;20032;-73
2022/06/24 01:48:40;;;;;;;0.10;0.10;;;19.60;99.90;;;;;;5051470;28;20025;-73
2022/06/24 01:51:09;;;;;;;0.10;0.10;;;19.60;99.90;;;;;;5052122;28;20086;-73
2022/06/24 01:53:35;;;;;;;0.00;0.00;;;19.60;99.90;;;;;;5052094;28;20473;-73
2022/06/24 01:56:02;;;;;;;0.00;0.00;;;19.70;99.90;;;;;;5051893;28;20025;-73
2022/06/24 01:58:28;;;;;;;0.00;0.00;;;19.50;99.90;;;;;;5033790;28;20053;-73
2022/06/24 02:00:54;;;;;;;0.22;0.22;;;19.50;99.90;;;;;;5033862;28;20425;-73
2022/06/24 02:03:20;;;;;;;0.00;0.00;;;19.50;99.90;;;;;;5051840;28;20108;-73
2022/06/24 02:05:46;;;;;;;0.10;0.10;;;19.70;99.90;;;;;;5051850;28;20053;-73
2022/06/24 02:08:13;;;;;;;0.10;0.10;;;19.80;99.90;;;;;;5033940;28;20025;-73
2022/06/24 02:13:26;;;;;;;0.00;0.00;;;19.90;99.90;;;;;;5051817;28;20074;-73
2022/06/24 02:15:56;;;;;;;0.08;0.08;;;19.80;99.90;;;;;;5034040;28;20025;-73
2022/06/24 02:18:23;;;;;;;0.05;0.05;;;19.70;99.90;;;;;;5051817;28;20036;-73
2022/06/24 02:20:49;;;;;;;0.10;0.10;;;19.90;99.90;;;;;;5051617;28;20423;-73
2022/06/24 02:23:18;;;;;;;0.00;0.00;;;19.90;99.90;;;;;;5051648;28;20021;-73
2022/06/24 02:25:45;;;;;;;0.00;0.00;;;20.00;99.90;;;;;;5033715;28;20021;-73
2022/06/24 02:28:11;;;;;;;0.00;0.00;;;20.10;99.90;;;;;;5033652;28;20021;-73
2022/06/24 02:30:38;;;;;;;0.10;0.10;;;20.10;99.90;;;;;;5033830;28;20025;-73
2022/06/24 02:33:05;;;;;;;0.05;0.05;;;20.30;99.90;;;;;;5033850;28;20109;-73
2022/06/24 02:35:31;;;;;;;0.00;0.00;;;20.30;99.90;;;;;;5051586;28;20021;-73
2022/06/24 02:37:56;;;;;;;0.00;0.00;;;20.40;99.90;;;;;;5051396;28;20115;-73
2022/06/24 02:43:18;;;;;;;0.10;0.10;;;20.40;99.90;;;;;;5055741;28;20132;-73
2022/06/24 02:45:56;;;;;;;0.00;0.00;;;20.30;99.90;;;;;;5037790;28;20027;-73
2022/06/24 02:48:23;;;;;;;0.10;0.10;;;20.30;99.90;;;;;;5055000;28;20103;-73
2022/06/24 02:50:54;;;;;;;0.00;0.00;;;20.10;99.90;;;;;;5037668;28;20028;-73
2022/06/24 02:53:21;;;;;;;0.00;0.00;;;20.00;99.90;;;;;;5055634;28;20047;-73
2022/06/24 02:56:10;;;;;;;0.00;0.00;;;19.80;99.90;;;;;;5055283;28;20042;-73
2022/06/24 02:58:36;;;;;;;0.00;0.00;;;19.70;99.90;;;;;;5037097;28;20074;-73
2022/06/24 03:01:03;;;;;;;0.00;0.00;;;19.70;99.90;;;;;;5055177;28;20029;-73
2022/06/24 03:03:30;;;;;;;0.00;0.00;;;19.50;99.90;;;;;;5037485;28;20025;-73
2022/06/24 03:05:56;;;;;;;0.00;0.00;;;19.40;99.90;;;;;;5055030;28;20082;-74
2022/06/24 03:08:23;;;;;;;0.00;0.00;;;19.40;99.90;;;;;;5054852;28;20028;-73
2022/06/24 03:10:50;;;;;;;0.10;0.10;;;19.60;99.90;;;;;;5055122;28;20039;-73
2022/06/24 03:13:16;;;;;;;0.10;0.10;;;19.70;99.90;;;;;;5054796;28;20095;-73
2022/06/24 03:15:43;;;;;;;0.10;0.10;;;19.80;99.90;;;;;;5055029;28;20021;-73
2022/06/24 03:18:11;;;;;;;0.00;0.00;;;19.80;99.90;;;;;;5054645;28;20047;-73
2022/06/24 03:20:37;;;;;;;0.00;0.00;;;19.90;99.90;;;;;;5054673;28;20029;-73
2022/06/24 03:23:04;;;;;;;0.00;0.00;;;20.00;99.90;;;;;;5054725;28;20071;-73
2022/06/24 03:25:30;;;;;;;0.00;0.00;;;20.10;99.90;;;;;;5054747;28;20027;-73
2022/06/24 03:27:55;;;;;;;0.00;0.00;;;20.10;99.90;;;;;;5020263;28;20395;-73
2022/06/24 03:30:21;;;;;;;0.10;0.10;;;20.20;99.90;;;;;;5054654;28;20389;-73
2022/06/24 03:32:47;;;;;;;0.00;0.00;;;20.10;99.90;;;;;;5054643;28;20431;-74
2022/06/24 03:35:13;;;;;;;0.03;0.03;;;20.20;99.90;;;;;;5054641;28;20055;-74
2022/06/24 03:37:39;;;;;;;0.00;0.00;;;20.20;99.90;;;;;;5054421;28;20380;-73
2022/06/24 03:40:06;;;;;;;0.00;0.00;;;20.10;99.90;;;;;;5054320;28;20100;-73
2022/06/24 03:42:31;;;;;;;0.03;0.03;;;20.10;99.90;;;;;;5036486;28;20051;-73
2022/06/24 03:44:57;;;;;;;0.00;0.00;;;20.00;99.90;;;;;;5036532;28;20021;-73
2022/06/24 03:47:23;;;;;;;0.00;0.00;;;20.10;99.90;;;;;;5054070;28;20028;-73
2022/06/24 03:49:52;;;;;;;0.10;0.10;;;20.20;99.90;;;;;;5019821;28;20025;-73
2022/06/24 03:52:18;;;;;;;0.10;0.10;;;20.10;99.90;;;;;;5035611;28;20029;-73
2022/06/24 03:54:44;;;;;;;0.10;0.10;;;20.00;99.90;;;;;;5054216;28;20032;-73
2022/06/24 03:57:10;;;;;;;0.00;0.00;;;20.00;99.90;;;;;;5054296;28;20025;-73
2022/06/24 03:59:35;;;;;;;0.10;0.10;;;20.10;99.90;;;;;;5053908;28;20512;-73
2022/06/24 04:02:01;;;;;;;0.10;0.10;;;20.10;99.90;;;;;;5054004;28;20036;-73
2022/06/24 04:04:27;;;;;;;0.63;0.20;;;20.10;99.90;;;;;;5054006;28;20389;-73
2022/06/24 04:06:53;;;;;;;0.10;0.10;;;20.00;99.90;;;;;;5053666;28;20108;-73
2022/06/24 04:09:18;;;;;;;0.10;0.10;;;19.90;99.90;;;;;;5035818;28;20544;-73
2022/06/24 04:11:44;;;;;;;0.00;0.00;;;19.80;99.90;;;;;;5053809;28;20028;-73
2022/06/24 04:14:10;;;;;;;0.05;0.05;;;19.70;99.90;;;;;;5053859;28;20108;-73
2022/06/24 04:16:36;;;;;;;0.00;0.00;;;19.70;99.90;;;;;;5053602;28;20025;-74
2022/06/24 04:19:02;;;;;;;0.00;0.00;;;19.70;99.90;;;;;;5053651;28;20098;-73
2022/06/24 04:21:29;;;;;;;0.00;0.00;;;19.70;99.90;;;;;;5053417;28;20025;-73
2022/06/24 04:23:55;;;;;;;0.10;0.10;;;19.50;99.90;;;;;;5053577;28;20021;-73
2022/06/24 04:26:21;;;;;;;0.10;0.10;;;19.70;99.90;;;;;;5053396;28;20385;-73
2022/06/24 04:28:48;;;;;;;0.10;0.10;;;19.90;99.90;;;;;;5053379;28;20128;-73
2022/06/24 04:31:14;;;;;;;0.00;0.00;;;19.70;99.90;;;;;;5053458;28;20079;-73
2022/06/24 04:33:40;;;;;;;0.00;0.00;;;19.40;99.90;;;;;;5035830;28;20025;-73
2022/06/24 04:36:13;;;;;;;0.00;0.00;;;19.50;99.90;;;;;;5053166;28;20427;-73
2022/06/24 04:38:43;;;;;;;0.10;0.10;;;19.60;99.90;;;;;;5035093;28;20083;-73
2022/06/24 04:41:13;;;;;;;0.10;0.10;;;19.70;99.90;;;;;;5053185;28;20025;-73
2022/06/24 04:43:39;;;;;;;0.10;0.10;;;19.70;99.90;;;;;;5053209;28;20370;-73
2022/06/24 04:46:05;;;;;;;0.05;0.05;;;19.70;99.90;;;;;;5053138;28;20032;-73
2022/06/24 04:48:30;;;;;;;0.10;0.10;;;19.70;99.90;;;;;;5052659;28;20485;-73
2022/06/24 04:50:56;;;;;;;0.10;0.10;;;19.70;99.90;;;;;;5053129;28;20025;-73
2022/06/24 04:53:22;;;;;;;0.10;0.10;;;19.60;99.90;;;;;;5053041;28;20536;-73
2022/06/24 04:55:48;;;;;;;0.00;0.00;;;19.60;99.90;;;;;;5053064;28;20419;-73
2022/06/24 04:58:14;;;;;;;0.00;0.00;;;19.50;99.90;;;;;;5052716;28;20036;-73
2022/06/24 05:00:40;;;;;;;0.00;0.00;;;19.60;99.90;;;;;;5052806;28;20329;-73
2022/06/24 05:03:05;;;;;;;0.00;0.00;;;19.70;99.90;;;;;;5051965;28;20530;-73
2022/06/24 05:05:31;;;;;;;0.20;0.20;;;19.70;99.90;;;;;;5052808;28;20036;-73
2022/06/24 05:07:57;;;;;;;0.10;0.10;;;19.60;99.90;;;;;;5052642;28;20021;-73
2022/06/24 05:10:23;;;;;;;0.00;0.00;;;19.70;99.90;;;;;;5052665;28;20393;-73
2022/06/24 05:12:48;;;;;;;0.00;0.00;;;19.90;99.90;;;;;;5052747;28;20028;-74
2022/06/24 05:15:14;;;;;;;0.00;0.00;;;20.00;99.90;;;;;;5052610;28;20036;-74
2022/06/24 05:17:40;;;;;;;0.10;0.10;;;19.80;99.90;;;;;;5052467;28;20082;-73
2022/06/24 05:20:06;;;;;;;0.03;0.03;;;20.00;99.90;;;;;;5052321;28;20021;-74
2022/06/24 05:22:32;;;;;;;0.00;0.00;;;20.00;99.90;;;;;;5052505;28;20021;-73
2022/06/24 05:24:57;;;;;;;0.00;0.00;;;19.80;99.90;;;;;;5052555;28;20155;-73
2022/06/24 05:27:23;;;;;;;0.00;0.00;;;19.80;99.90;;;;;;5034536;28;20092;-73
2022/06/24 05:29:49;;;;;;;0.20;0.20;;;20.00;99.90;;;;;;5052391;28;20025;-73
2022/06/24 05:32:15;;;;;;;0.10;0.10;;;20.10;99.90;;;;;;5052424;28;20082;-73
2022/06/24 05:34:41;;;;;;;0.00;0.00;;;20.20;99.90;;;;;;5034821;28;20025;-73
2022/06/24 05:37:06;;;;;;;0.00;0.00;;;20.10;99.90;;;;;;5033330;28;20025;-73
2022/06/24 05:39:32;;;;;;;0.00;0.00;;;20.10;99.90;;;;;;5060964;28;20383;-73
2022/06/24 05:41:58;;;;;;;0.00;0.00;;;20.10;99.90;;;;;;5064988;28;20017;-74
2022/06/24 05:44:23;;;;;;;0.00;0.00;;;20.30;99.90;;;;;;5071942;28;20016;-73
2022/06/24 05:46:51;;;;;;;0.00;0.00;;;20.20;99.90;;;;;;5054302;28;20048;-74
2022/06/24 05:49:17;;;;;;;0.00;0.00;;;20.20;99.90;;;;;;5051593;28;20473;-73
2022/06/24 05:51:43;;;;;;;0.00;0.00;;;20.00;99.90;;;;;;5051921;28;20025;-73
2022/06/24 05:56:53;;;;;;;0.03;0.03;;;20.10;99.90;;;;;;5071705;28;20040;-73
2022/06/24 05:59:18;;;;;;;0.00;0.00;;;20.20;99.90;;;;;;5071597;28;20442;-73
2022/06/24 06:01:44;;;;;;;0.00;0.00;;;20.20;99.90;;;;;;5052877;28;20043;-73
2022/06/24 06:04:10;;;;;;;0.00;0.00;;;20.40;99.90;;;;;;5036633;28;20021;-73
2022/06/24 06:06:36;;;;;;;0.00;0.00;;;20.60;99.90;;;;;;5071509;28;20050;-73
2022/06/24 06:09:02;;;;;;;0.00;0.00;;;20.70;99.90;;;;;;5071666;28;20036;-74
2022/06/24 06:11:28;;;;;;;0.00;0.00;;;21.10;99.90;;;;;;5053906;28;20062;-73
2022/06/24 06:13:56;;;;;;;0.08;0.08;;;21.10;99.90;;;;;;5072103;28;20063;-74
2022/06/24 06:16:22;;;;;;;0.00;0.00;;;21.20;99.90;;;;;;5078166;28;20100;-73
2022/06/24 06:18:49;;;;;;;0.00;0.00;;;21.20;99.90;;;;;;5078217;28;20024;-75
2022/06/24 06:21:15;;;;;;;0.05;0.05;;;21.20;99.90;;;;;;5078312;28;20056;-74
2022/06/24 06:23:42;;;;;;;0.00;0.00;;;21.30;99.90;;;;;;5060295;28;20024;-74
2022/06/24 06:26:09;;;;;;;0.15;0.15;;;21.30;99.90;;;;;;5060276;28;20435;-75
2022/06/24 06:28:36;;;;;;;0.00;0.00;;;21.50;99.90;;;;;;5078291;28;20032;-74
2022/06/24 06:31:02;;;;;;;0.00;0.00;;;21.60;99.90;;;;;;5078131;28;20438;-74
2022/06/24 06:33:31;;;;;;;0.00;0.00;;;21.70;99.90;;;;;;5078112;28;20460;-74
2022/06/24 06:36:11;;;;;;;0.00;0.00;;;21.60;99.90;;;;;;5073472;28;20400;-75
2022/06/24 06:38:38;;;;;;;0.10;0.10;;;21.60;99.90;;;;;;5068890;28;20564;-75
2022/06/24 06:41:04;;;;;;;0.00;0.00;;;21.60;99.90;;;;;;5047422;28;20057;-74
2022/06/24 06:43:30;;;;;;;0.00;0.00;;;21.70;99.90;;;;;;5057981;28;20021;-74
2022/06/24 06:45:56;;;;;;;0.00;0.00;;;21.70;99.90;;;;;;5058184;28;20028;-74
2022/06/24 06:48:22;;;;;;;0.00;0.00;;;21.70;99.90;;;;;;5057842;28;20017;-74
2022/06/24 06:50:56;;;;;;;0.00;0.00;;;21.70;99.90;;;;;;5058050;28;20060;-74
2022/06/24 06:53:24;;;;;;;0.00;0.00;;;21.80;99.90;;;;;;5040292;28;20483;-74
2022/06/24 06:55:50;;;;;;;0.00;0.00;;;21.80;99.90;;;;;;5058052;28;20167;-75
2022/06/24 06:58:17;;;;;;;0.17;0.17;;;21.90;99.90;;;;;;5057632;28;20071;-74
2022/06/24 07:00:44;;;;;;;0.00;0.00;;;21.80;99.90;;;;;;5039040;28;20033;-74
2022/06/24 07:03:10;;;;;;;0.05;0.05;;;21.60;99.90;;;;;;5057747;28;20063;-75
2022/06/24 07:05:36;;;;;;;0.00;0.00;;;21.60;99.90;;;;;;5023371;28;20025;-76
2022/06/24 07:08:03;;;;;;;0.00;0.00;;;21.70;99.90;;;;;;5057092;28;20076;-74
2022/06/24 07:10:28;;;;;;;0.17;0.17;;;21.60;99.90;;;;;;5039525;28;20515;-74
2022/06/24 07:12:54;;;;;;;0.05;0.05;;;21.50;99.90;;;;;;5057841;28;20025;-74
2022/06/24 07:15:20;;;;;;;0.00;0.00;;;21.50;99.90;;;;;;5039665;28;20024;-74
2022/06/24 07:17:46;;;;;;;0.17;0.17;;;21.60;99.90;;;;;;5056703;28;20052;-74
2022/06/24 07:20:12;;;;;;;0.08;0.08;;;21.80;99.90;;;;;;5039671;28;20025;-75
2022/06/24 07:22:39;;;;;;;0.00;0.00;;;21.80;99.90;;;;;;5039474;28;20032;-74
2022/06/24 07:25:06;;;;;;;0.03;0.03;;;21.80;99.90;;;;;;5039908;28;20017;-74
2022/06/24 07:27:32;;;;;;;0.00;0.00;;;21.80;99.90;;;;;;5035697;28;20036;-74
2022/06/24 07:29:58;;;;;;;1.00;0.98;;;21.70;99.90;;;;;;5054457;28;20021;-74
2022/06/24 07:32:24;;;;;;;0.10;0.10;;;21.60;99.90;;;;;;5054285;28;20395;-74
2022/06/24 07:34:49;;;;;;;0.10;0.10;;;21.60;99.90;;;;;;5054282;28;20499;-74
2022/06/24 07:37:15;;;;;;;0.10;0.10;;;21.50;99.90;;;;;;5019662;28;20025;-74
2022/06/24 07:39:41;;;;;;;0.00;0.00;;;21.60;99.90;;;;;;5054308;28;20025;-74
2022/06/24 07:42:06;;;;;;;7.13;3.85;;;21.80;99.90;;;;;;5054013;28;20029;-74
2022/06/24 07:44:32;;;;;;;0.00;0.00;;;21.80;99.90;;;;;;5054146;28;20056;-74
2022/06/24 07:46:58;;;;;;;0.63;0.35;;;21.80;99.90;;;;;;5053753;28;20033;-75
2022/06/24 07:49:24;;;;;;;0.00;0.00;;;21.90;99.90;;;;;;5053958;28;20024;-74
2022/06/24 07:51:50;;;;;;;0.00;0.00;;;21.90;99.90;;;;;;5053997;28;20373;-74
2022/06/24 07:54:16;;;;;;;0.00;0.00;;;21.80;99.90;;;;;;5054180;28;20025;-74
2022/06/24 07:56:57;;;;;;;2.60;1.05;;;21.90;99.90;;;;;;5053060;28;20039;-74
2022/06/24 07:59:27;;;;;;;0.05;0.05;;;21.80;99.90;;;;;;5035905;28;20108;-74
2022/06/24 08:01:54;;;;;;;0.00;0.00;;;21.70;99.90;;;;;;5036081;28;20059;-74
2022/06/24 08:04:21;;;;;;;0.00;0.00;;;21.80;99.90;;;;;;5036068;28;20029;-75
2022/06/24 08:06:49;;;;;;;2.10;1.27;;;22.00;99.90;;;;;;5036136;28;20060;-75
2022/06/24 08:09:26;;;;;;;0.10;0.10;;;22.10;99.90;;;;;;5035252;28;20029;-75
2022/06/24 08:11:53;;;;;;;0.00;0.00;;;22.10;99.90;;;;;;5053759;28;20029;-73
2022/06/24 09:03:52;;;;;;;9.98;0.77;;;22.80;99.90;;;;;;4998867;28;20145;-75
2022/06/24 09:06:17;;;;;;;0.10;0.10;;;22.90;99.90;;;;;;5012857;28;20113;-76
2022/06/24 09:08:50;;;;;;;0.20;0.10;;;22.80;99.90;;;;;;5012979;28;20022;-75
2022/06/24 09:11:15;;;;;;;0.00;0.00;;;22.70;99.90;;;;;;5012732;28;20079;-76
2022/06/24 09:13:45;;;;;;;0.43;0.30;;;22.80;99.90;;;;;;5005978;23;20039;-77
2022/06/24 09:16:13;;;;;;;0.00;0.00;;;23.00;99.90;;;;;;4992655;28;20528;-76
2022/06/24 09:18:39;;;;;;;0.00;0.00;;;22.90;99.90;;;;;;4973976;28;20471;-76
2022/06/24 09:21:05;;;;;;;0.77;0.55;;;23.30;99.90;;;;;;4972263;28;20030;-76
2022/06/24 09:23:31;;;;;;;0.05;0.05;;;24.00;99.90;;;;;;4974012;28;20027;-77
2022/06/24 09:26:02;;;;;;;1.45;0.40;;;24.00;99.90;;;;;;4988253;28;20034;-77
2022/06/24 09:28:32;;;;;;;0.10;0.10;;;24.00;99.90;;;;;;4973119;28;20033;-77
2022/06/24 09:31:09;;;;;;;0.17;0.17;;;23.80;99.90;;;;;;4972487;28;20565;-78
2022/06/24 09:33:44;;;;;;;0.00;0.00;;;24.30;99.90;;;;;;4972600;28;20033;-77
2022/06/24 09:36:12;;;;;;;0.10;0.10;;;24.50;99.60;;;;;;4956468;28;20030;-78
2022/06/24 09:39:03;;;;;;;0.00;0.00;;;24.50;98.30;;;;;;4973634;28;20031;-77
2022/06/24 09:41:30;;;;;;;1.20;0.28;;;24.40;98.30;;;;;;4972550;28;20542;-78
2022/06/24 09:44:01;;;;;;;0.25;0.20;;;24.30;94.10;;;;;;4972452;28;20505;-78
2022/06/24 09:46:27;;;;;;;0.38;0.38;;;24.20;94.70;;;;;;4988579;28;20034;-78
2022/06/24 09:49:02;;;;;;;0.00;0.00;;;24.70;94.60;;;;;;4971997;28;20027;-77
2022/06/24 09:51:28;;;;;;;0.00;0.00;;;25.60;91.90;;;;;;4956041;28;20386;-77
2022/06/24 09:53:55;;;;;;;0.00;0.00;;;26.10;90.40;;;;;;4974511;28;20029;-76
2022/06/24 09:56:21;;;;;;;0.00;0.00;;;26.60;84.90;;;;;;4973375;28;20417;-75
2022/06/24 10:01:35;;;;;;;0.25;0.03;;;26.40;81.80;;;;;;4974425;28;20023;-76
2022/06/24 10:04:04;;;;;;;10.75;1.60;;;26.80;80.20;;;;;;4972319;28;20115;-76
2022/06/24 10:06:34;;;;;;;0.00;0.00;;;27.00;77.60;;;;;;4972174;28;20435;-77
2022/06/24 10:09:05;;;;;;;0.00;0.00;;;27.20;70.50;;;;;;4973668;28;20058;-78
2022/06/24 10:11:34;;;;;;;0.00;0.00;;;27.40;71.80;;;;;;4988838;28;20038;-78
2022/06/24 10:14:01;;;;;;;0.00;0.00;;;27.00;70.70;;;;;;4973700;28;20039;-78
2022/06/24 10:16:26;;;;;;;0.00;0.00;;;27.20;71.00;;;;;;4988909;28;20031;-78
2022/06/24 10:18:53;;;;;;;2.30;1.20;;;27.40;69.80;;;;;;4991379;28;20047;-79
2022/06/24 10:21:19;;;;;;;0.00;0.00;;;27.80;69.30;;;;;;4989225;28;20027;-78
2022/06/24 10:23:49;;;;;;;0.03;0.03;;;27.90;66.60;;;;;;4974862;28;20109;-78
2022/06/24 10:26:27;;;;;;;0.00;0.00;;;28.20;66.20;;;;;;4972634;28;20126;-75
2022/06/24 10:29:05;;;;;;;1.42;1.35;;;28.10;67.80;;;;;;4972707;28;20027;-78
2022/06/24 10:31:49;;;;;;;1.35;0.40;;;28.40;63.90;;;;;;4971559;28;20157;-77
2022/06/24 10:34:28;;;;;;;0.95;0.90;;;27.80;63.20;;;;;;4986674;28;20035;-78
2022/06/24 10:37:00;;;;;;;0.00;0.00;;;27.70;64.00;;;;;;4986778;28;20031;-77
2022/06/24 10:39:28;;;;;;;0.00;0.00;;;28.00;64.20;;;;;;4970455;28;20107;-78
2022/06/24 10:42:01;;;;;;;4.45;2.35;;;28.50;60.90;;;;;;4971060;28;20027;-77
2022/06/24 10:44:29;;;;;;;0.00;0.00;;;28.70;59.90;;;;;;4987273;28;20525;-77
2022/06/24 10:47:04;;;;;;;0.10;0.00;;;28.70;59.10;;;;;;4974059;28;20022;-78
2022/06/24 10:49:52;;;;;;;0.00;0.00;;;29.00;57.70;;;;;;4991511;28;20058;-76
2022/06/24 10:52:36;;;;;;;0.00;0.00;;;28.70;56.30;;;;;;4972614;28;20065;-77
2022/06/24 10:55:17;;;;;;;0.20;0.13;;;28.50;58.80;;;;;;4973802;28;20051;-76
2022/06/24 10:57:51;;;;;;;0.00;0.00;;;28.90;58.80;;;;;;4972728;28;20438;-77
2022/06/24 11:00:21;;;;;;;0.00;0.00;;;29.00;58.10;;;;;;4972407;28;20033;-77
2022/06/24 11:02:51;;;;;;;0.00;0.00;;;28.70;57.50;;;;;;4975194;28;20038;-77
2022/06/24 11:05:18;;;;;;;0.00;0.00;;;28.60;57.20;;;;;;4976437;28;20122;-78
2022/06/24 11:07:44;;;;;;;0.00;0.00;;;28.40;58.50;;;;;;4992560;28;20102;-78
2022/06/24 11:10:21;;;;;;;1.20;0.38;;;28.60;57.20;;;;;;4992762;28;20125;-75
2022/06/24 11:12:52;;;;;;;0.38;0.38;;;28.30;56.80;;;;;;4958977;28;20059;-72
2022/06/24 11:15:18;;;;;;;0.20;0.20;;;28.30;57.20;;;;;;4976908;28;20062;-73
2022/06/24 11:17:44;;;;;;;0.00;0.00;;;28.60;56.70;;;;;;4991114;28;20417;-73
2022/06/24 11:20:12;;;;;;;0.00;0.00;;;28.80;56.40;;;;;;4976221;28;20394;-73
2022/06/24 11:22:42;;;;;;;0.03;0.03;;;28.90;55.90;;;;;;4975348;28;20026;-73
2022/06/24 11:25:10;;;;;;;2.03;0.73;;;29.20;56.60;;;;;;4976388;28;20101;-73
2022/06/24 11:27:36;;;;;;;0.00;0.00;;;29.30;55.80;;;;;;4975854;28;20023;-73
2022/06/24 11:30:03;;;;;;;0.00;0.00;;;28.90;57.20;;;;;;4975357;28;20076;-73
2022/06/24 11:32:28;;;;;;;0.00;0.00;;;28.90;56.60;;;;;;4976890;28;20030;-72
2022/06/24 11:34:54;;;;;;;0.00;0.00;;;28.60;57.20;;;;;;4976339;28;20482;-72
2022/06/24 11:37:24;;;;;;;1.45;0.43;;;28.60;56.80;;;;;;4975620;28;20035;-73
2022/06/24 11:39:54;;;;;;;0.00;0.00;;;28.90;56.20;;;;;;4976626;28;20090;-73
2022/06/24 11:42:23;;;;;;;0.00;0.00;;;29.30;53.80;;;;;;4975089;28;20054;-72
2022/06/24 11:44:51;;;;;;;1.50;0.50;;;29.70;53.50;;;;;;4975290;28;20027;-73
2022/06/24 11:47:29;;;;;;;10.85;0.85;;;29.40;56.30;;;;;;4991308;28;20034;-74
2022/06/24 11:49:54;;;;;;;0.10;0.08;;;28.80;55.20;;;;;;4976068;28;20022;-74
2022/06/24 11:52:20;;;;;;;0.73;0.35;;;28.40;58.00;;;;;;4976111;28;20104;-73
2022/06/24 11:54:46;;;;;;;0.00;0.00;;;27.90;55.00;;;;;;4976217;28;20364;-74
2022/06/24 11:57:12;;;;;;;0.00;0.00;;;27.60;55.20;;;;;;4974824;28;20027;-73
2022/06/24 11:59:38;;;;;;;0.00;0.00;;;27.30;57.20;;;;;;4976009;28;20031;-72
2022/06/24 12:02:07;;;;;;;0.95;0.73;;;27.30;58.30;;;;;;4975356;28;20390;-73
2022/06/24 12:04:33;;;;;;;1.00;0.30;;;27.30;60.20;;;;;;4975348;28;20026;-73
2022/06/24 12:07:02;;;;;;;0.00;0.00;;;27.20;61.00;;;;;;4973991;28;20034;-73
2022/06/24 12:09:29;;;;;;;0.00;0.00;;;26.90;60.80;;;;;;4973712;28;20061;-72
2022/06/24 12:11:54;;;;;;;0.00;0.00;;;26.80;62.50;;;;;;4974707;28;20051;-73
2022/06/24 12:14:21;;;;;;;0.03;0.03;;;26.80;63.70;;;;;;4973773;28;20091;-74
2022/06/24 12:17:10;;;;;;;0.38;0.38;;;26.70;64.90;;;;;;4975094;28;20027;-74
2022/06/24 12:19:58;;;;;;;1.38;0.32;;;26.40;65.70;;;;;;4973697;28;20433;-73
2022/06/24 12:22:24;;;;;;;0.10;0.10;;;26.40;66.20;;;;;;4974888;28;20526;-74
2022/06/24 12:25:00;;;;;;;7.75;0.65;;;26.00;66.50;;;;;;4975153;28;20054;-72
2022/06/24 12:27:36;;;;;;;0.13;0.13;;;25.80;67.10;;;;;;4973595;28;20023;-72
2022/06/24 12:30:03;;;;;;;0.15;0.13;;;25.60;67.60;;;;;;4974881;28;20023;-72
2022/06/24 12:32:49;;;;;;;0.00;0.00;;;25.50;67.90;;;;;;4973615;28;20161;-72
2022/06/24 12:35:29;;;;;;;0.08;0.08;;;25.40;67.30;;;;;;4975106;28;20042;-72
2022/06/24 12:37:55;;;;;;;3.63;0.68;;;25.20;69.20;;;;;;4974678;28;20052;-73
2022/06/24 12:40:22;;;;;;;0.20;0.20;;;25.20;69.50;;;;;;4974335;28;20035;-73
2022/06/24 12:43:12;;;;;;;0.17;0.17;;;25.10;69.00;;;;;;4974531;28;20391;-73
2022/06/24 12:45:40;;;;;;;0.00;0.00;;;25.10;69.40;;;;;;4973326;28;20019;-73
2022/06/24 12:51:03;;;;;;;0.00;0.00;;;25.00;70.20;;;;;;4974366;28;20034;-72
2022/06/24 12:53:30;;;;;;;0.00;0.00;;;25.10;70.00;;;;;;4974473;28;20376;-73
2022/06/24 12:55:56;;;;;;;0.00;0.00;;;25.10;69.30;;;;;;4974421;28;20031;-72
2022/06/24 12:58:21;;;;;;;0.00;0.00;;;25.00;69.10;;;;;;4974360;28;20027;-72
2022/06/24 13:00:47;;;;;;;0.00;0.00;;;24.90;68.60;;;;;;4973861;28;20410;-73
2022/06/24 13:03:17;;;;;;;0.00;0.00;;;25.00;69.30;;;;;;4974193;28;20056;-73
2022/06/24 13:05:43;;;;;;;0.17;0.15;;;25.00;69.80;;;;;;4974157;28;20023;-73
2022/06/24 13:08:08;;;;;;;0.00;0.00;;;24.90;70.10;;;;;;4974199;28;20041;-73
2022/06/24 13:10:35;;;;;;;0.20;0.10;;;24.90;69.60;;;;;;4974034;28;20038;-73
2022/06/24 13:13:03;;;;;;;0.00;0.00;;;24.70;70.40;;;;;;4973888;28;20038;-73
2022/06/24 13:15:29;;;;;;;0.00;0.00;;;24.70;70.80;;;;;;4972856;28;20027;-73
2022/06/24 13:17:55;;;;;;;0.22;0.22;;;24.70;70.10;;;;;;4974104;28;20042;-73
2022/06/24 13:20:21;;;;;;;0.00;0.00;;;24.60;69.70;;;;;;4972640;28;20390;-73
2022/06/24 13:22:47;;;;;;;0.00;0.00;;;24.60;70.40;;;;;;4974047;28;20038;-73
2022/06/24 13:25:13;;;;;;;0.00;0.00;;;24.50;71.30;;;;;;4971584;28;20391;-73
2022/06/24 13:27:39;;;;;;;0.00;0.00;;;24.60;71.90;;;;;;4974186;28;20471;-73
2022/06/24 13:30:06;;;;;;;0.00;0.00;;;24.50;72.10;;;;;;4972426;28;20027;-73
2022/06/24 13:32:31;;;;;;;0.00;0.00;;;24.60;72.90;;;;;;4972582;28;20026;-73
2022/06/24 13:34:57;;;;;;;0.00;0.00;;;24.80;72.40;;;;;;4972382;28;20548;-73
2022/06/24 13:37:23;;;;;;;0.00;0.00;;;24.90;72.20;;;;;;4972474;28;20057;-73
2022/06/24 13:39:49;;;;;;;0.25;0.25;;;24.90;71.40;;;;;;4988774;28;20023;-73
2022/06/24 13:42:15;;;;;;;1.02;0.82;;;24.80;73.30;;;;;;4972178;28;20033;-73
2022/06/24 13:44:41;;;;;;;0.25;0.25;;;24.00;78.70;;;;;;4973542;28;20018;-73
2022/06/24 13:47:07;;;;;;;1.65;0.75;;;23.40;86.60;;;;;;4973567;28;20026;-73
2022/06/24 13:49:33;;;;;;;0.47;0.05;;;22.70;90.80;;;;;;4972047;28;20030;-72
2022/06/24 13:51:59;;;;;;;0.00;0.00;;;22.60;92.60;;;;;;4988429;28;20027;-73
2022/06/24 13:54:25;;;;;;;0.00;0.00;;;22.70;94.60;;;;;;4973198;28;20027;-73
2022/06/24 13:56:51;;;;;;;2.72;0.75;;;22.50;96.20;;;;;;4972021;28;20049;-73